Aérodrome :
LOGIN :

S'inscrire | Disclaimer

   EN    FR    IT 

 










Légende :    VFR   VFR Marginal   IFR   IFR Intensif   IFR Très Intensif
Visi : 
Plafond : 
>= 8 km
>= 3000ft
5 à 8 km
1000 à 3000 ft
1500m à 5 km
500 à 1000 ft
800 à 1500m
200 à 500 ft
< 800m
< 200 ft
Symboles :   Orages  Brouillard  Fortes neiges  Fortes précipitations  Vent > 20 kt
SIGMETs :   Divers  Orages  Givrage  Turbulence  Onde Orograph.  Cendres Volcan.






- Altitude de l'aérodrome : 142 ft
- Code IATA : ALC


LEAL - Alicante

DERNIER METAR :
  • 290700Z 01007KT 9999 FEW026 21/15 Q1018 NOSIG

METARs EXPIRÉS :
  • 290630Z 36007KT 9999 SCT026 20/15 Q1018 NOSIG
  • 290600Z 36006KT 340V040 9999 SCT028 19/15 Q1018 NOSIG
  • 290530Z 01007KT 350V050 9999 FEW030 19/15 Q1018 NOSIG
  • 290500Z 01006KT CAVOK 19/15 Q1018 NOSIG
  • 290430Z 01006KT CAVOK 19/15 Q1017 NOSIG

TAF TAF LEAL
Valide du 29 à 06h jusqu'au 30 à 06h UTC


290500Z 2906/3006 35006KT CAVOK TX26/2912Z TN18/2906Z
BECMG 2909/2911 08010KT
BECMG 2920/2923 34006KT



MET'MAP, la Météo Aéronautique d'un coup d'oeil ! - Copyright ORBIFLY Décembre 2007 - Disclaimer

ORBIFLY MET'MAP TEAM :

Programmation & Développement : Alexandra Zaïnal
Sur une idée originale de : Baudouin d'Aumeries
Assistance à la programmation : Marc-Olivier Méhu
Soutien technique & logistique : Manuel Goepfert

Contact : metmap@orbifly.com




SOURCES & CREDITS :

   NOAA